createdAt,value
2019-04-05T00:01:31.735Z,70.53
2019-04-05T00:04:03.264Z,69.19
2019-04-05T00:06:32.367Z,69.74
2019-04-05T00:09:01.435Z,69.83
2019-04-05T00:11:32.290Z,70.05
2019-04-05T00:14:03.379Z,70.66
2019-04-05T00:16:32.543Z,68.79
2019-04-05T00:19:01.627Z,69.68
2019-04-05T00:21:30.704Z,68.35
2019-04-05T00:23:59.784Z,66.69
2019-04-05T00:26:29.009Z,65.78
2019-04-05T00:28:59.291Z,67.88
2019-04-05T00:31:28.804Z,68.49
2019-04-05T00:33:58.268Z,69.11
2019-04-05T00:36:32.864Z,68.85
2019-04-05T00:39:01.986Z,67.95
2019-04-05T00:41:33.017Z,68.27
2019-04-05T00:44:04.266Z,67.54
2019-04-05T00:46:33.327Z,67.35
2019-04-05T00:49:02.401Z,67.21
2019-04-05T00:51:31.545Z,66.45
2019-04-05T00:54:01.243Z,68.25
2019-04-05T00:56:36.104Z,67.71
2019-04-05T00:59:06.837Z,68.21
2019-04-05T01:01:38.908Z,67.57
2019-04-05T01:04:09.087Z,68.57
2019-04-05T01:06:38.311Z,68.94
2019-04-05T01:09:08.388Z,68.65
2019-04-05T01:11:40.551Z,68.00
2019-04-05T01:14:18.081Z,67.73
2019-04-05T01:16:50.558Z,68.25
2019-04-05T01:19:31.105Z,70.16
2019-04-05T01:22:01.654Z,69.36
2019-04-05T01:24:53.952Z,69.07
2019-04-05T01:27:28.093Z,69.28
2019-04-05T01:30:00.632Z,67.89
2019-04-05T01:32:29.782Z,66.44
2019-04-05T01:34:59.950Z,66.93
2019-04-05T01:37:29.014Z,66.84
2019-04-05T01:40:01.666Z,66.88
2019-04-05T01:42:33.679Z,66.17
2019-04-05T01:45:09.035Z,65.04
2019-04-05T01:47:39.233Z,64.40
2019-04-05T01:50:09.103Z,65.60
2019-04-05T01:52:44.300Z,65.76
2019-04-05T01:55:14.957Z,65.74
2019-04-05T01:57:44.107Z,66.16
2019-04-05T02:00:13.719Z,65.90
2019-04-05T02:02:49.737Z,66.90
2019-04-05T02:05:21.567Z,66.45
2019-04-05T02:07:50.926Z,67.46
2019-04-05T02:10:20.126Z,67.71
2019-04-05T02:12:53.708Z,69.82
2019-04-05T02:15:32.569Z,69.43
2019-04-05T02:18:01.634Z,69.28
2019-04-05T02:20:30.714Z,67.83
2019-04-05T02:23:01.068Z,68.70
2019-04-05T02:25:31.523Z,69.04
2019-04-05T02:28:01.784Z,69.96
2019-04-05T02:30:32.108Z,69.64
2019-04-05T02:33:02.209Z,69.87
2019-04-05T02:35:38.979Z,70.64
2019-04-05T02:38:09.613Z,72.01
2019-04-05T02:40:41.326Z,72.42
2019-04-05T02:43:14.820Z,71.68
2019-04-05T02:45:47.653Z,70.05
2019-04-05T02:48:18.250Z,69.79
2019-04-05T02:50:50.075Z,70.02
2019-04-05T02:53:22.705Z,71.72
2019-04-05T02:55:57.519Z,71.44
2019-04-05T02:58:29.067Z,70.29
2019-04-05T03:00:59.822Z,70.11
2019-04-05T03:03:32.771Z,68.54
2019-04-05T03:06:01.850Z,70.09
2019-04-05T03:08:32.033Z,68.73
2019-04-05T03:11:07.563Z,67.01
2019-04-05T03:13:42.837Z,66.31
2019-04-05T03:16:19.439Z,66.24
2019-04-05T03:18:54.387Z,67.33
2019-04-05T03:21:25.101Z,64.95
2019-04-05T03:23:59.011Z,66.69
2019-04-05T03:26:31.763Z,65.81
2019-04-05T03:29:09.339Z,66.83
2019-04-05T03:31:38.709Z,67.07
2019-04-05T03:34:29.949Z,65.38
2019-04-05T03:37:03.578Z,66.01
2019-04-05T03:39:33.073Z,65.86
2019-04-05T03:42:05.132Z,65.38
2019-04-05T03:44:34.409Z,65.07
2019-04-05T03:47:08.714Z,65.61
2019-04-05T03:49:37.821Z,66.61
2019-04-05T03:52:07.546Z,67.40
2019-04-05T03:54:38.272Z,65.46
2019-04-05T03:57:10.169Z,65.98
2019-04-05T03:59:39.553Z,66.81
2019-04-05T04:02:08.724Z,68.35
2019-04-05T04:04:37.941Z,68.58
2019-04-05T04:07:09.815Z,65.75
2019-04-05T04:09:40.389Z,64.89
2019-04-05T04:12:13.263Z,65.37
2019-04-05T04:14:47.068Z,66.54
2019-04-05T04:17:22.280Z,66.21
2019-04-05T04:19:56.838Z,64.82
2019-04-05T04:22:30.516Z,66.42
2019-04-05T04:25:04.596Z,65.14
2019-04-05T04:27:38.195Z,63.24
2019-04-05T04:30:07.821Z,65.61
2019-04-05T04:32:37.335Z,64.55
2019-04-05T04:35:22.032Z,63.64
2019-04-05T04:37:52.935Z,64.26
2019-04-05T04:40:22.066Z,63.99
2019-04-05T04:42:55.863Z,64.16
2019-04-05T04:45:27.973Z,62.66
2019-04-05T04:48:06.663Z,62.31
2019-04-05T04:50:39.167Z,61.45
2019-04-05T04:53:08.461Z,64.20
2019-04-05T04:55:41.932Z,63.30
2019-04-05T04:58:16.935Z,62.04
2019-04-05T05:00:48.108Z,62.67
2019-04-05T05:03:24.407Z,61.08
2019-04-05T05:06:00.105Z,61.88
2019-04-05T05:08:29.816Z,62.93
2019-04-05T05:10:59.045Z,61.30
2019-04-05T05:13:28.161Z,62.63
2019-04-05T05:15:57.430Z,60.61
2019-04-05T05:18:33.525Z,59.67
2019-04-05T05:21:05.632Z,59.68
2019-04-05T05:23:37.170Z,61.00
2019-04-05T05:26:06.444Z,62.36
2019-04-05T05:28:35.620Z,59.46
2019-04-05T05:31:12.209Z,61.03
2019-04-05T05:33:41.361Z,61.63
2019-04-05T05:36:12.440Z,62.30
2019-04-05T05:38:42.021Z,61.46
2019-04-05T05:41:13.190Z,60.24
2019-04-05T05:43:42.408Z,59.84
2019-04-05T05:46:11.671Z,62.64
2019-04-05T05:48:42.178Z,60.45
2019-04-05T05:51:11.544Z,61.19
2019-04-05T05:53:41.064Z,61.58
2019-04-05T05:56:11.626Z,61.60
2019-04-05T05:58:48.924Z,62.83
2019-04-05T06:01:18.281Z,61.15
2019-04-05T06:03:47.537Z,60.71
2019-04-05T06:06:41.657Z,60.77
2019-04-05T06:09:10.790Z,60.70
2019-04-05T06:11:46.258Z,61.93
2019-04-05T06:14:15.437Z,62.45
2019-04-05T06:16:46.510Z,66.38
2019-04-05T06:19:18.820Z,64.51
2019-04-05T06:21:49.249Z,64.82
2019-04-05T06:24:18.397Z,62.05
2019-04-05T06:26:47.808Z,61.61
2019-04-05T06:29:18.727Z,62.58
2019-04-05T06:31:48.263Z,63.88
2019-04-05T06:34:22.199Z,66.59
2019-04-05T06:36:53.233Z,67.86
2019-04-05T06:39:23.510Z,66.51
2019-04-05T06:41:54.371Z,65.27
2019-04-05T06:44:28.130Z,68.55
2019-04-05T06:46:57.258Z,69.80
2019-04-05T06:49:26.455Z,69.11
2019-04-05T06:51:55.592Z,66.14
2019-04-05T06:54:24.667Z,66.57
2019-04-05T06:56:59.349Z,65.35
2019-04-05T06:59:28.524Z,65.60
2019-04-05T07:01:57.633Z,64.80
2019-04-05T07:04:27.082Z,66.05
2019-04-05T07:06:56.456Z,64.85
2019-04-05T07:09:34.103Z,63.63
2019-04-05T07:12:11.848Z,65.05
2019-04-05T07:14:40.911Z,63.23
2019-04-05T07:17:10.050Z,61.79
2019-04-05T07:19:39.388Z,62.55
2019-04-05T07:22:09.834Z,62.67
2019-04-05T07:24:38.939Z,62.15
2019-04-05T07:27:14.041Z,61.45
2019-04-05T07:29:46.287Z,60.83
2019-04-05T07:32:15.398Z,61.31
2019-04-05T07:34:46.047Z,61.44
2019-04-05T07:37:15.427Z,61.13
2019-04-05T07:39:44.569Z,61.65
2019-04-05T07:42:13.669Z,61.19
2019-04-05T07:44:44.475Z,60.21
2019-04-05T07:47:19.027Z,60.81
2019-04-05T07:49:49.803Z,62.38
2019-04-05T07:52:18.937Z,62.61
2019-04-05T07:54:48.021Z,62.83
2019-04-05T07:57:17.226Z,62.95
2019-04-05T07:59:51.742Z,62.82
2019-04-05T08:02:21.261Z,62.60
2019-04-05T08:04:54.596Z,62.32
2019-04-05T08:07:21.504Z,61.79
2019-04-05T08:09:51.190Z,62.01
2019-04-05T08:12:20.623Z,61.91
2019-04-05T08:14:55.642Z,61.71
2019-04-05T08:17:28.529Z,61.05
2019-04-05T08:19:58.074Z,61.74
2019-04-05T08:22:32.321Z,61.51
2019-04-05T08:25:04.872Z,60.45
2019-04-05T08:27:34.008Z,60.11
2019-04-05T08:30:03.077Z,59.82
2019-04-05T08:32:36.109Z,60.18
2019-04-05T08:35:08.129Z,60.16
2019-04-05T08:37:38.554Z,60.29
2019-04-05T08:40:08.280Z,60.88
2019-04-05T08:42:37.399Z,60.92
2019-04-05T08:45:11.589Z,61.10
2019-04-05T08:47:46.148Z,61.88
2019-04-05T08:50:15.370Z,62.79
2019-04-05T08:52:47.397Z,62.59
2019-04-05T08:55:16.982Z,61.38
2019-04-05T08:57:48.089Z,61.60
2019-04-05T09:00:17.412Z,62.91
2019-04-05T09:02:49.827Z,63.12
2019-04-05T09:05:20.196Z,63.42
2019-04-05T09:07:50.260Z,62.97
2019-04-05T09:10:25.665Z,62.75
2019-04-05T09:12:55.294Z,62.60
2019-04-05T09:15:29.695Z,61.81
2019-04-05T09:18:11.025Z,61.40
2019-04-05T09:20:40.265Z,61.61
2019-04-05T09:23:15.224Z,61.48
2019-04-05T09:25:47.587Z,61.72
2019-04-05T09:28:18.216Z,62.05
2019-04-05T09:30:47.416Z,61.75
2019-04-05T09:33:18.313Z,62.31
2019-04-05T09:35:50.261Z,62.44
2019-04-05T09:38:24.587Z,61.37
2019-04-05T09:40:54.465Z,61.86
2019-04-05T09:43:24.957Z,62.18
2019-04-05T09:45:54.053Z,62.15
2019-04-05T09:48:27.249Z,61.74
2019-04-05T09:50:56.528Z,61.02
2019-04-05T09:53:25.950Z,61.10
2019-04-05T09:55:55.022Z,61.07
2019-04-05T09:58:24.146Z,59.94
2019-04-05T10:00:55.154Z,60.42
2019-04-05T10:03:26.334Z,59.49
2019-04-05T10:05:55.980Z,59.37
2019-04-05T10:08:25.310Z,58.32
2019-04-05T10:10:54.990Z,57.94
2019-04-05T10:13:26.640Z,57.55
2019-04-05T10:15:57.429Z,58.06
2019-04-05T10:18:27.003Z,58.06
2019-04-05T10:20:56.873Z,58.00
2019-04-05T10:23:31.400Z,58.03
2019-04-05T10:26:20.212Z,58.87
2019-04-05T10:28:38.901Z,58.83
2019-04-05T10:31:08.359Z,60.33
2019-04-05T10:33:37.926Z,60.77
2019-04-05T10:36:07.514Z,59.29
2019-04-05T10:38:38.004Z,58.63
2019-04-05T10:41:07.204Z,58.20
2019-04-05T10:43:41.172Z,59.45
2019-04-05T10:46:12.721Z,59.32
2019-04-05T10:48:44.321Z,58.79
2019-04-05T10:51:15.401Z,59.64
2019-04-05T10:53:44.895Z,59.83
2019-04-05T10:56:14.008Z,61.45
2019-04-05T10:58:45.967Z,62.23
2019-04-05T11:01:19.671Z,62.07
2019-04-05T11:03:50.304Z,61.31
2019-04-05T11:06:21.769Z,61.85
2019-04-05T11:08:51.863Z,61.30
2019-04-05T11:11:20.990Z,62.21
2019-04-05T11:13:51.441Z,62.74
2019-04-05T11:16:22.259Z,60.85
2019-04-05T11:18:53.028Z,61.30
2019-04-05T11:21:22.170Z,62.38
2019-04-05T11:23:51.200Z,62.45
2019-04-05T11:26:20.336Z,62.40
2019-04-05T11:28:53.358Z,63.27
2019-04-05T11:31:22.443Z,62.59
2019-04-05T11:33:51.998Z,62.47
2019-04-05T11:36:21.821Z,63.05
2019-04-05T11:38:55.463Z,62.68
2019-04-05T11:41:25.985Z,62.88
2019-04-05T11:43:58.495Z,62.61
2019-04-05T11:46:29.017Z,63.31
2019-04-05T11:49:06.558Z,61.59
2019-04-05T11:51:36.143Z,62.53
2019-04-05T11:54:06.881Z,63.25
2019-04-05T11:56:37.887Z,63.16
2019-04-05T11:59:15.543Z,62.94
2019-04-05T12:01:58.142Z,62.80
2019-04-05T12:04:27.269Z,63.30
2019-04-05T12:06:56.392Z,61.85
2019-04-05T12:09:25.532Z,63.29
2019-04-05T12:11:57.184Z,62.85
2019-04-05T12:14:30.712Z,62.65
2019-04-05T12:17:00.292Z,62.80
2019-04-05T12:19:29.544Z,62.19
2019-04-05T12:21:59.757Z,62.68
2019-04-05T12:24:32.626Z,62.28
2019-04-05T12:27:00.010Z,63.36
2019-04-05T12:29:34.581Z,63.80
2019-04-05T12:32:03.829Z,64.41
2019-04-05T12:34:33.238Z,63.92
2019-04-05T12:37:03.516Z,63.48
2019-04-05T12:39:36.373Z,64.21
2019-04-05T12:42:05.177Z,63.81
2019-04-05T12:44:35.517Z,63.71
2019-04-05T12:47:06.024Z,62.97
2019-04-05T12:49:39.336Z,63.68
2019-04-05T12:52:21.577Z,64.58
2019-04-05T12:54:43.462Z,63.93
2019-04-05T12:57:12.582Z,63.92
2019-04-05T12:59:41.982Z,63.64
2019-04-05T13:02:11.566Z,63.60
2019-04-05T13:04:40.723Z,63.06
2019-04-05T13:07:09.993Z,62.75
2019-04-05T13:09:39.091Z,62.96
2019-04-05T13:12:13.343Z,61.66
2019-04-05T13:14:42.481Z,62.64
2019-04-05T13:17:17.029Z,63.42
2019-04-05T13:19:46.396Z,63.78
2019-04-05T13:22:22.829Z,63.47
2019-04-05T13:24:51.456Z,63.80
2019-04-05T13:27:20.989Z,62.79
2019-04-05T13:29:56.284Z,63.10
2019-04-05T13:32:25.451Z,64.10
2019-04-05T13:34:55.866Z,64.98
2019-04-05T13:37:25.687Z,65.29
2019-04-05T13:39:57.629Z,64.93
2019-04-05T13:42:31.227Z,64.09
2019-04-05T13:45:00.216Z,64.46
2019-04-05T13:47:29.238Z,64.42
2019-04-05T13:50:00.139Z,64.13
2019-04-05T13:52:29.338Z,64.28
2019-04-05T13:55:03.210Z,64.34
2019-04-05T13:57:32.524Z,63.61
2019-04-05T14:00:03.430Z,62.63
2019-04-05T14:02:32.900Z,62.56
2019-04-05T14:05:06.691Z,63.18
2019-04-05T14:07:36.259Z,63.36
2019-04-05T14:10:15.465Z,63.33
2019-04-05T14:12:46.002Z,64.45
2019-04-05T14:15:18.554Z,64.45
2019-04-05T14:17:49.238Z,65.08
2019-04-05T14:20:24.585Z,65.62
2019-04-05T14:22:53.685Z,65.93
2019-04-05T14:25:26.070Z,66.26
2019-04-05T14:27:53.778Z,64.95
2019-04-05T14:30:22.914Z,65.61
2019-04-05T14:32:55.417Z,65.85
2019-04-05T14:35:25.985Z,66.10
2019-04-05T14:37:55.922Z,65.40
2019-04-05T14:40:30.362Z,64.97
2019-04-05T14:42:59.246Z,64.98
2019-04-05T14:45:28.393Z,66.29
2019-04-05T14:47:58.468Z,66.46
2019-04-05T14:50:29.084Z,66.24
2019-04-05T14:53:00.781Z,66.68
2019-04-05T14:55:35.487Z,66.07
2019-04-05T14:58:06.573Z,65.46
2019-04-05T15:00:35.684Z,65.19
2019-04-05T15:03:04.773Z,65.45
2019-04-05T15:05:35.315Z,66.18
2019-04-05T15:08:04.357Z,66.03
2019-04-05T15:10:35.935Z,65.79
2019-04-05T15:13:05.045Z,64.99
2019-04-05T15:15:34.195Z,65.05
2019-04-05T15:18:03.335Z,64.28
2019-04-05T15:20:36.211Z,64.64
2019-04-05T15:23:09.447Z,64.83
2019-04-05T15:25:37.481Z,65.08
2019-04-05T15:28:06.577Z,64.85
2019-04-05T15:30:37.262Z,64.49
2019-04-05T15:33:06.848Z,64.34
2019-04-05T15:35:35.981Z,63.99
2019-04-05T15:38:09.475Z,63.52
2019-04-05T15:40:38.595Z,64.06
2019-04-05T15:43:07.721Z,64.46
2019-04-05T15:45:38.413Z,64.18
2019-04-05T15:48:14.167Z,64.41
2019-04-05T15:50:40.917Z,65.29
2019-04-05T15:53:11.670Z,65.42
2019-04-05T15:55:48.715Z,64.96
2019-04-05T15:58:18.013Z,64.45
2019-04-05T16:00:47.646Z,64.64
2019-04-05T16:03:19.187Z,64.14
2019-04-05T16:05:49.339Z,65.08
2019-04-05T16:08:19.335Z,64.93
2019-04-05T16:10:48.465Z,64.54
2019-04-05T16:13:19.274Z,64.57
2019-04-05T16:15:48.432Z,64.33
2019-04-05T16:18:17.596Z,64.05
2019-04-05T16:20:46.714Z,64.48
2019-04-05T16:23:17.114Z,64.81
2019-04-05T16:25:46.189Z,64.86
2019-04-05T16:28:15.330Z,64.54
2019-04-05T16:30:46.976Z,64.80
2019-04-05T16:33:17.273Z,64.28
2019-04-05T16:35:47.342Z,64.45
2019-04-05T16:38:17.978Z,64.87
2019-04-05T16:40:48.544Z,64.47
2019-04-05T16:43:17.619Z,64.37
2019-04-05T16:45:48.638Z,64.58
2019-04-05T16:48:19.594Z,64.50
2019-04-05T16:50:49.792Z,64.92
2019-04-05T16:53:18.900Z,65.01
2019-04-05T16:55:49.778Z,64.77
2019-04-05T16:58:20.229Z,64.81
2019-04-05T17:00:49.428Z,64.70
2019-04-05T17:03:24.461Z,65.22
2019-04-05T17:05:58.503Z,64.77
2019-04-05T17:08:35.472Z,64.12
2019-04-05T17:11:09.423Z,64.35
2019-04-05T17:13:41.023Z,64.64
2019-04-05T17:16:12.418Z,64.35
2019-04-05T17:18:44.144Z,65.16
2019-04-05T17:21:14.757Z,65.12
2019-04-05T17:23:44.280Z,65.25
2019-04-05T17:26:14.895Z,64.95
2019-04-05T17:28:44.044Z,64.79
2019-04-05T17:31:16.383Z,64.71
2019-04-05T17:33:45.478Z,65.30
2019-04-05T17:36:14.586Z,65.99
2019-04-05T17:38:43.658Z,66.24
2019-04-05T17:41:12.855Z,66.20
2019-04-05T17:43:46.642Z,65.91
2019-04-05T17:46:18.798Z,66.28
2019-04-05T17:48:48.995Z,66.05
2019-04-05T17:51:18.255Z,66.03
2019-04-05T17:53:48.866Z,65.52
2019-04-05T17:56:19.997Z,65.58
2019-04-05T17:58:52.021Z,65.29
2019-04-05T18:01:21.195Z,65.12
2019-04-05T18:03:50.270Z,65.18
2019-04-05T18:06:20.164Z,65.15
2019-04-05T18:08:49.323Z,65.21
2019-04-05T18:11:19.322Z,65.03
2019-04-05T18:13:48.441Z,64.85
2019-04-05T18:16:17.517Z,65.39
2019-04-05T18:18:46.636Z,65.47
2019-04-05T18:21:15.703Z,65.44
2019-04-05T18:23:46.538Z,65.18
2019-04-05T18:26:18.487Z,65.02
2019-04-05T18:28:53.526Z,65.47
2019-04-05T18:31:27.048Z,65.42
2019-04-05T18:33:56.148Z,65.71
2019-04-05T18:36:25.236Z,66.10
2019-04-05T18:38:57.096Z,66.04
2019-04-05T18:41:26.582Z,65.58
2019-04-05T18:43:55.724Z,65.54
2019-04-05T18:46:27.700Z,65.81
2019-04-05T18:48:59.751Z,65.90
2019-04-05T18:51:28.864Z,65.96
2019-04-05T18:54:00.886Z,66.08
2019-04-05T18:56:31.521Z,66.03
2019-04-05T18:59:02.123Z,65.98
2019-04-05T19:01:33.343Z,65.92
2019-04-05T19:04:08.213Z,65.58
2019-04-05T19:06:37.508Z,65.36
2019-04-05T19:09:11.598Z,64.64
2019-04-05T19:11:39.563Z,64.58
2019-04-05T19:14:08.778Z,64.59
2019-04-05T19:16:38.017Z,64.61
2019-04-05T19:19:08.659Z,65.15
2019-04-05T19:21:41.736Z,65.69
2019-04-05T19:24:12.575Z,65.27
2019-04-05T19:26:43.228Z,65.34
2019-04-05T19:29:12.378Z,65.76
2019-04-05T19:49:33.703Z,64.45
2019-04-05T19:52:02.924Z,64.62
2019-04-05T19:54:32.936Z,64.81
2019-04-05T19:57:02.065Z,64.87
2019-04-05T19:59:31.134Z,64.97
2019-04-05T20:02:01.747Z,64.91
2019-04-05T20:04:35.635Z,64.64
2019-04-05T20:07:07.719Z,63.88
2019-04-05T20:09:38.394Z,63.70
2019-04-05T20:12:07.493Z,63.46
2019-04-05T20:14:38.393Z,63.58
2019-04-05T20:17:07.497Z,63.34
2019-04-05T20:19:36.619Z,63.32
2019-04-05T20:22:07.562Z,63.35
2019-04-05T20:24:36.659Z,63.66
2019-04-05T20:27:07.232Z,63.03
2019-04-05T20:29:37.987Z,62.85
2019-04-05T20:32:12.307Z,62.99
2019-04-05T20:34:41.448Z,62.60
2019-04-05T20:37:13.174Z,62.65
2019-04-05T20:39:42.284Z,63.02
2019-04-05T20:42:11.410Z,62.69
2019-04-05T20:44:41.986Z,62.55
2019-04-05T20:47:14.250Z,62.50
2019-04-05T20:49:43.341Z,62.24
2019-04-05T20:52:12.458Z,61.60
2019-04-05T20:54:41.570Z,61.42
2019-04-05T20:57:13.755Z,61.55
2019-04-05T20:59:44.595Z,60.87
2019-04-05T21:02:13.674Z,61.51
2019-04-05T21:04:42.786Z,61.95
2019-04-05T21:07:11.888Z,61.71
2019-04-05T21:09:41.117Z,62.03
2019-04-05T21:12:13.560Z,61.32
2019-04-05T21:14:44.986Z,61.91
2019-04-05T21:17:14.487Z,60.58
2019-04-05T21:19:48.430Z,61.29
2019-04-05T21:22:19.082Z,62.07
2019-04-05T21:24:49.485Z,61.62
2019-04-05T21:27:40.061Z,61.61
2019-04-05T21:30:09.400Z,61.24
2019-04-05T21:32:39.815Z,61.20
2019-04-05T21:35:08.906Z,61.46
2019-04-05T21:37:39.746Z,61.42
2019-04-05T21:40:08.968Z,61.16
2019-04-05T21:42:39.602Z,60.62
2019-04-05T21:45:10.472Z,60.23
2019-04-05T21:47:44.118Z,61.24
2019-04-05T21:50:17.031Z,62.21
2019-04-05T21:52:47.381Z,60.20
2019-04-05T21:55:24.443Z,60.19
2019-04-05T21:57:55.395Z,59.59
2019-04-05T22:00:27.569Z,58.39
2019-04-05T22:02:59.114Z,58.66
2019-04-05T22:05:29.176Z,57.89
2019-04-05T22:07:59.813Z,57.33
2019-04-05T22:10:31.211Z,57.13
2019-04-05T22:13:00.338Z,59.03
2019-04-05T22:15:29.881Z,57.88
2019-04-05T22:17:59.937Z,57.86
2019-04-05T22:20:30.799Z,57.60
2019-04-05T22:23:01.623Z,57.75
2019-04-05T22:25:30.685Z,57.87
2019-04-05T22:27:59.734Z,57.80
2019-04-05T22:30:28.821Z,58.22
2019-04-05T22:32:57.933Z,57.79
2019-04-05T22:35:32.155Z,57.33
2019-04-05T22:38:01.746Z,57.70
2019-04-05T22:40:37.152Z,57.06
2019-04-05T22:43:12.257Z,58.21
2019-04-05T22:45:43.397Z,59.75
2019-04-05T22:48:19.147Z,58.59
2019-04-05T22:50:52.723Z,57.14
2019-04-05T22:53:22.885Z,56.83
2019-04-05T22:55:53.818Z,57.09
2019-04-05T22:58:31.879Z,58.19
2019-04-05T23:01:06.010Z,57.50
2019-04-05T23:03:35.048Z,56.81
2019-04-05T23:06:04.141Z,56.83
2019-04-05T23:08:33.191Z,55.95
2019-04-05T23:11:03.801Z,56.68
2019-04-05T23:13:33.216Z,57.37
2019-04-05T23:16:06.843Z,57.47
2019-04-05T23:18:38.939Z,56.46
2019-04-05T23:21:08.007Z,57.91
2019-04-05T23:23:40.951Z,57.72
2019-04-05T23:26:17.494Z,57.27
2019-04-05T23:28:48.051Z,57.18
2019-04-05T23:31:22.743Z,58.09
2019-04-05T23:33:51.881Z,57.57
2019-04-05T23:36:25.355Z,57.26
2019-04-05T23:38:54.515Z,57.03
2019-04-05T23:41:23.597Z,57.54
2019-04-05T23:43:52.651Z,59.68
2019-04-05T23:46:21.781Z,61.03
2019-04-05T23:48:50.856Z,58.97
2019-04-05T23:51:19.896Z,59.29
2019-04-05T23:53:48.972Z,58.83
2019-04-05T23:56:18.049Z,60.09
2019-04-05T23:58:48.648Z,59.56
